RYR594E EDDB-LHBP
Flight info
| Callsign | RYR594E |
|---|---|
| Flight time | 1h 14m |
| Altitude | 39000 |
| Route | ARSAP Y210 OLUMA T710 KULUV DCT DESEN DCT VALPI DCT NIT M748 ARFOX |
| Aircraft | B738/M-SDE3FGILRWY/SB1 |
Departure
| Time | 2026-05-07 14:54 |
|---|---|
| Airport | Berlin Brandenburg Airport (EDDB) |
Arrival
| Time | 2026-05-07 16:08 |
|---|---|
| Airport | Budapest Liszt Ferenc International Airport (LHBP) |
| Time | Latitude | Longitude | Altitude | Speed | Heading |
|---|---|---|---|---|---|
| 2026-05-07 14:25 | 52.36760 | 13.50621 | 154 ft | 0 kts | 159° |
| 2026-05-07 14:45 | 52.36774 | 13.50612 | 154 ft | 4 kts | 159° |
| 2026-05-07 14:45 | 52.36799 | 13.50596 | 154 ft | 4 kts | 159° |
| 2026-05-07 14:45 | 52.36819 | 13.50585 | 155 ft | 4 kts | 184° |
| 2026-05-07 14:45 | 52.36838 | 13.50601 | 154 ft | 4 kts | 245° |
| 2026-05-07 14:46 | 52.36847 | 13.50639 | 154 ft | 3 kts | 249° |
| 2026-05-07 14:46 | 52.36848 | 13.50643 | 154 ft | 2 kts | 249° |
| 2026-05-07 14:48 | 52.36845 | 13.50631 | 154 ft | 3 kts | 249° |
| 2026-05-07 14:48 | 52.36829 | 13.50564 | 154 ft | 9 kts | 249° |
| 2026-05-07 14:48 | 52.36803 | 13.50454 | 156 ft | 11 kts | 249° |
| 2026-05-07 14:48 | 52.36773 | 13.50325 | 153 ft | 14 kts | 249° |
| 2026-05-07 14:49 | 52.36738 | 13.50179 | 151 ft | 12 kts | 249° |
| 2026-05-07 14:49 | 52.36751 | 13.50049 | 148 ft | 14 kts | 334° |
| 2026-05-07 14:49 | 52.36772 | 13.49916 | 146 ft | 15 kts | 248° |
| 2026-05-07 14:49 | 52.36736 | 13.49764 | 147 ft | 14 kts | 249° |
| 2026-05-07 14:50 | 52.36701 | 13.49616 | 147 ft | 14 kts | 249° |
| 2026-05-07 14:50 | 52.36667 | 13.49474 | 147 ft | 13 kts | 249° |
| 2026-05-07 14:50 | 52.36632 | 13.49325 | 147 ft | 15 kts | 249° |
| 2026-05-07 14:50 | 52.36590 | 13.49149 | 147 ft | 18 kts | 249° |
| 2026-05-07 14:51 | 52.36542 | 13.48945 | 147 ft | 20 kts | 249° |
| 2026-05-07 14:51 | 52.36491 | 13.48731 | 147 ft | 20 kts | 249° |
| 2026-05-07 14:51 | 52.36448 | 13.48552 | 147 ft | 13 kts | 249° |
| 2026-05-07 14:51 | 52.36450 | 13.48418 | 146 ft | 13 kts | 322° |
| 2026-05-07 14:52 | 52.36533 | 13.48361 | 148 ft | 13 kts | 339° |
| 2026-05-07 14:52 | 52.36617 | 13.48309 | 148 ft | 13 kts | 338° |
| 2026-05-07 14:52 | 52.36702 | 13.48294 | 152 ft | 13 kts | 24° |
| 2026-05-07 14:52 | 52.36739 | 13.48377 | 154 ft | 8 kts | 68° |
| 2026-05-07 14:53 | 52.36759 | 13.48461 | 154 ft | 10 kts | 69° |
| 2026-05-07 14:53 | 52.36847 | 13.48835 | 155 ft | 74 kts | 69° |
| 2026-05-07 14:53 | 52.37125 | 13.50009 | 159 ft | 144 kts | 69° |
| 2026-05-07 14:53 | 52.37518 | 13.51693 | 658 ft | 162 kts | 69° |
| 2026-05-07 14:54 | 52.37929 | 13.53432 | 1555 ft | 167 kts | 67° |
| 2026-05-07 14:54 | 52.38372 | 13.55280 | 2235 ft | 188 kts | 66° |
| 2026-05-07 14:54 | 52.38881 | 13.57426 | 2536 ft | 214 kts | 67° |
| 2026-05-07 14:54 | 52.39440 | 13.59795 | 2906 ft | 235 kts | 67° |
| 2026-05-07 14:55 | 52.40046 | 13.62367 | 3583 ft | 248 kts | 67° |
| 2026-05-07 14:55 | 52.40676 | 13.65045 | 4460 ft | 256 kts | 68° |
| 2026-05-07 14:55 | 52.41325 | 13.67803 | 5256 ft | 261 kts | 68° |
| 2026-05-07 14:55 | 52.41982 | 13.70590 | 6287 ft | 263 kts | 69° |
| 2026-05-07 14:56 | 52.42645 | 13.73409 | 7213 ft | 267 kts | 69° |
| 2026-05-07 14:56 | 52.43318 | 13.76271 | 8104 ft | 272 kts | 69° |
| 2026-05-07 14:56 | 52.43997 | 13.79142 | 9019 ft | 276 kts | 68° |
| 2026-05-07 14:56 | 52.44794 | 13.82034 | 9896 ft | 283 kts | 65° |
| 2026-05-07 14:57 | 52.45653 | 13.84951 | 10751 ft | 286 kts | 64° |
| 2026-05-07 14:57 | 52.46527 | 13.87907 | 11599 ft | 290 kts | 64° |
| 2026-05-07 14:57 | 52.47406 | 13.90917 | 12434 ft | 296 kts | 65° |
| 2026-05-07 14:57 | 52.48295 | 13.93988 | 13326 ft | 300 kts | 65° |
| 2026-05-07 14:58 | 52.49190 | 13.97099 | 14183 ft | 304 kts | 65° |
| 2026-05-07 14:58 | 52.50101 | 14.00269 | 15014 ft | 309 kts | 65° |
| 2026-05-07 14:58 | 52.51024 | 14.03487 | 15856 ft | 314 kts | 65° |
| 2026-05-07 14:58 | 52.51958 | 14.06749 | 16697 ft | 319 kts | 65° |
| 2026-05-07 14:59 | 52.52908 | 14.10071 | 17526 ft | 324 kts | 65° |
| 2026-05-07 14:59 | 52.53724 | 14.13576 | 18133 ft | 334 kts | 82° |
| 2026-05-07 14:59 | 52.53652 | 14.17367 | 18881 ft | 335 kts | 106° |
| 2026-05-07 14:59 | 52.52649 | 14.20890 | 19124 ft | 352 kts | 129° |
| 2026-05-07 15:00 | 52.50974 | 14.23960 | 19359 ft | 371 kts | 135° |
| 2026-05-07 15:00 | 52.49140 | 14.27039 | 19848 ft | 381 kts | 136° |
| 2026-05-07 15:00 | 52.47266 | 14.30138 | 20540 ft | 385 kts | 136° |
| 2026-05-07 15:00 | 52.45378 | 14.33269 | 21280 ft | 387 kts | 136° |
| 2026-05-07 15:01 | 52.43481 | 14.36440 | 21963 ft | 392 kts | 135° |
| 2026-05-07 15:01 | 52.41569 | 14.39658 | 22603 ft | 396 kts | 134° |
| 2026-05-07 15:01 | 52.39642 | 14.42912 | 23241 ft | 400 kts | 134° |
| 2026-05-07 15:01 | 52.37696 | 14.46206 | 23826 ft | 404 kts | 134° |
| 2026-05-07 15:02 | 52.35734 | 14.49525 | 24382 ft | 407 kts | 134° |
| 2026-05-07 15:02 | 52.33759 | 14.52862 | 24958 ft | 409 kts | 134° |
| 2026-05-07 15:02 | 52.31776 | 14.56209 | 25524 ft | 411 kts | 135° |
| 2026-05-07 15:02 | 52.29782 | 14.59569 | 26084 ft | 413 kts | 135° |
| 2026-05-07 15:03 | 52.27805 | 14.62898 | 26565 ft | 416 kts | 135° |
| 2026-05-07 15:03 | 52.25757 | 14.66338 | 27105 ft | 418 kts | 135° |
| 2026-05-07 15:03 | 52.23720 | 14.69758 | 27577 ft | 421 kts | 134° |
| 2026-05-07 15:03 | 52.21953 | 14.73503 | 28014 ft | 426 kts | 119° |
| 2026-05-07 15:04 | 52.20614 | 14.77827 | 28523 ft | 428 kts | 117° |
| 2026-05-07 15:04 | 52.19300 | 14.82192 | 28995 ft | 431 kts | 117° |
| 2026-05-07 15:04 | 52.17971 | 14.86591 | 29410 ft | 434 kts | 117° |
| 2026-05-07 15:04 | 52.16604 | 14.91060 | 29825 ft | 437 kts | 118° |
| 2026-05-07 15:05 | 52.15234 | 14.95492 | 30213 ft | 439 kts | 119° |
| 2026-05-07 15:05 | 52.13866 | 14.99872 | 30562 ft | 441 kts | 120° |
| 2026-05-07 15:05 | 52.12468 | 15.04324 | 30890 ft | 443 kts | 120° |
| 2026-05-07 15:05 | 52.11057 | 15.08800 | 31211 ft | 446 kts | 120° |
| 2026-05-07 15:06 | 52.09636 | 15.13294 | 31516 ft | 448 kts | 120° |
| 2026-05-07 15:06 | 52.08207 | 15.17809 | 31816 ft | 450 kts | 120° |
| 2026-05-07 15:06 | 52.06767 | 15.22351 | 32115 ft | 452 kts | 120° |
| 2026-05-07 15:06 | 52.05327 | 15.26887 | 32504 ft | 452 kts | 120° |
| 2026-05-07 15:07 | 52.03889 | 15.31412 | 32969 ft | 450 kts | 121° |
| 2026-05-07 15:07 | 52.02457 | 15.35910 | 33393 ft | 448 kts | 121° |
| 2026-05-07 15:07 | 52.01027 | 15.40393 | 33905 ft | 445 kts | 122° |
| 2026-05-07 15:07 | 51.99611 | 15.44822 | 34310 ft | 443 kts | 122° |
| 2026-05-07 15:08 | 51.98185 | 15.49273 | 34535 ft | 445 kts | 122° |
| 2026-05-07 15:08 | 51.96745 | 15.53752 | 34657 ft | 450 kts | 122° |
| 2026-05-07 15:08 | 51.95296 | 15.58258 | 34922 ft | 451 kts | 121° |
| 2026-05-07 15:08 | 51.93849 | 15.62755 | 35259 ft | 450 kts | 121° |
| 2026-05-07 15:09 | 51.92402 | 15.67246 | 35549 ft | 450 kts | 121° |
| 2026-05-07 15:09 | 51.90946 | 15.71751 | 35782 ft | 452 kts | 121° |
| 2026-05-07 15:09 | 51.89465 | 15.76243 | 36029 ft | 452 kts | 124° |
| 2026-05-07 15:09 | 51.87786 | 15.80520 | 36293 ft | 449 kts | 128° |
| 2026-05-07 15:10 | 51.86012 | 15.84668 | 36598 ft | 448 kts | 129° |
| 2026-05-07 15:10 | 51.84206 | 15.88792 | 36850 ft | 449 kts | 129° |
| 2026-05-07 15:10 | 51.82396 | 15.92929 | 37069 ft | 451 kts | 129° |
| 2026-05-07 15:10 | 51.80595 | 15.97083 | 37328 ft | 452 kts | 129° |
| 2026-05-07 15:11 | 51.78804 | 16.01251 | 37598 ft | 452 kts | 128° |
| 2026-05-07 15:11 | 51.77016 | 16.05432 | 37830 ft | 453 kts | 128° |
| 2026-05-07 15:11 | 51.75227 | 16.09621 | 38055 ft | 454 kts | 128° |
| 2026-05-07 15:11 | 51.73434 | 16.13816 | 38315 ft | 454 kts | 128° |
| 2026-05-07 15:12 | 51.71635 | 16.18017 | 38547 ft | 455 kts | 128° |
| 2026-05-07 15:12 | 51.69842 | 16.22197 | 38859 ft | 452 kts | 128° |
| 2026-05-07 15:12 | 51.68050 | 16.26362 | 38985 ft | 454 kts | 128° |
| 2026-05-07 15:12 | 51.66174 | 16.30465 | 38997 ft | 455 kts | 135° |
| 2026-05-07 15:13 | 51.61419 | 16.37054 | 38992 ft | 449 kts | 152° |
| 2026-05-07 15:13 | 51.55948 | 16.41875 | 38999 ft | 448 kts | 155° |
| 2026-05-07 15:14 | 51.50442 | 16.46593 | 39001 ft | 449 kts | 155° |
| 2026-05-07 15:14 | 51.44942 | 16.51359 | 38998 ft | 449 kts | 154° |
| 2026-05-07 15:15 | 51.39449 | 16.56152 | 38989 ft | 449 kts | 155° |
| 2026-05-07 15:15 | 51.33966 | 16.60936 | 38993 ft | 449 kts | 155° |
| 2026-05-07 15:16 | 51.28475 | 16.65715 | 38992 ft | 449 kts | 155° |
| 2026-05-07 15:16 | 51.22982 | 16.70480 | 38987 ft | 450 kts | 155° |
| 2026-05-07 15:17 | 51.17471 | 16.75248 | 38995 ft | 450 kts | 155° |
| 2026-05-07 15:17 | 51.11962 | 16.80000 | 38992 ft | 450 kts | 155° |
| 2026-05-07 15:18 | 51.06492 | 16.84706 | 38986 ft | 449 kts | 155° |
| 2026-05-07 15:18 | 51.01006 | 16.89414 | 38992 ft | 448 kts | 155° |
| 2026-05-07 15:19 | 50.95520 | 16.94108 | 38987 ft | 448 kts | 155° |
| 2026-05-07 15:19 | 50.90042 | 16.98783 | 38983 ft | 447 kts | 155° |
| 2026-05-07 15:20 | 50.84555 | 17.03452 | 38976 ft | 447 kts | 155° |
| 2026-05-07 15:20 | 50.79070 | 17.08107 | 38969 ft | 447 kts | 155° |
| 2026-05-07 15:21 | 50.73595 | 17.12744 | 38961 ft | 446 kts | 156° |
| 2026-05-07 15:21 | 50.68129 | 17.17359 | 38960 ft | 445 kts | 156° |
| 2026-05-07 15:22 | 50.62679 | 17.21947 | 38955 ft | 444 kts | 156° |
| 2026-05-07 15:22 | 50.57232 | 17.26523 | 38948 ft | 443 kts | 156° |
| 2026-05-07 15:23 | 50.51791 | 17.31080 | 38952 ft | 443 kts | 156° |
| 2026-05-07 15:23 | 50.46350 | 17.35626 | 38944 ft | 442 kts | 156° |
| 2026-05-07 15:24 | 50.40920 | 17.40151 | 38942 ft | 442 kts | 156° |
| 2026-05-07 15:24 | 50.35484 | 17.44670 | 38944 ft | 442 kts | 156° |
| 2026-05-07 15:25 | 50.30047 | 17.49178 | 38947 ft | 442 kts | 156° |
| 2026-05-07 15:25 | 50.24411 | 17.52786 | 38939 ft | 434 kts | 170° |
| 2026-05-07 15:26 | 50.18518 | 17.54821 | 38938 ft | 434 kts | 171° |
| 2026-05-07 15:26 | 50.12613 | 17.56844 | 38939 ft | 435 kts | 171° |
| 2026-05-07 15:27 | 50.06706 | 17.58909 | 38943 ft | 435 kts | 171° |
| 2026-05-07 15:27 | 50.00798 | 17.60993 | 38927 ft | 435 kts | 170° |
| 2026-05-07 15:28 | 49.94893 | 17.63078 | 38933 ft | 435 kts | 171° |
| 2026-05-07 15:28 | 49.89021 | 17.65145 | 38950 ft | 436 kts | 171° |
| 2026-05-07 15:29 | 49.83103 | 17.67221 | 38945 ft | 437 kts | 171° |
| 2026-05-07 15:29 | 49.77181 | 17.69294 | 38945 ft | 437 kts | 171° |
| 2026-05-07 15:30 | 49.72207 | 17.71031 | 38948 ft | 437 kts | 171° |
| 2026-05-07 15:30 | 49.66271 | 17.73099 | 38948 ft | 437 kts | 171° |
| 2026-05-07 15:31 | 49.60374 | 17.75149 | 38940 ft | 437 kts | 171° |
| 2026-05-07 15:31 | 49.54437 | 17.77207 | 38944 ft | 437 kts | 171° |
| 2026-05-07 15:32 | 49.48501 | 17.79260 | 38930 ft | 437 kts | 171° |
| 2026-05-07 15:32 | 49.42565 | 17.81308 | 38949 ft | 437 kts | 171° |
| 2026-05-07 15:33 | 49.36623 | 17.83352 | 38951 ft | 438 kts | 171° |
| 2026-05-07 15:33 | 49.30682 | 17.85392 | 38951 ft | 438 kts | 171° |
| 2026-05-07 15:34 | 49.24730 | 17.87430 | 38939 ft | 438 kts | 171° |
| 2026-05-07 15:34 | 49.18783 | 17.89461 | 38949 ft | 438 kts | 171° |
| 2026-05-07 15:35 | 49.12831 | 17.91490 | 38934 ft | 438 kts | 171° |
| 2026-05-07 15:35 | 49.06886 | 17.93511 | 38943 ft | 437 kts | 171° |
| 2026-05-07 15:36 | 49.00936 | 17.95359 | 38944 ft | 434 kts | 176° |
| 2026-05-07 15:36 | 48.94932 | 17.96216 | 38948 ft | 433 kts | 179° |
| 2026-05-07 15:37 | 48.88914 | 17.96944 | 38966 ft | 434 kts | 179° |
| 2026-05-07 15:37 | 48.82898 | 17.97728 | 38961 ft | 434 kts | 178° |
| 2026-05-07 15:38 | 48.76877 | 17.98553 | 38958 ft | 435 kts | 178° |
| 2026-05-07 15:38 | 48.70853 | 17.99387 | 38970 ft | 435 kts | 178° |
| 2026-05-07 15:39 | 48.64856 | 18.00215 | 38970 ft | 436 kts | 178° |
| 2026-05-07 15:39 | 48.58872 | 18.01040 | 38401 ft | 428 kts | 178° |
| 2026-05-07 15:40 | 48.55921 | 18.01446 | 37823 ft | 424 kts | 178° |
| 2026-05-07 15:40 | 48.53000 | 18.01846 | 37238 ft | 420 kts | 179° |
| 2026-05-07 15:40 | 48.50097 | 18.02244 | 36701 ft | 416 kts | 179° |
| 2026-05-07 15:40 | 48.47226 | 18.02636 | 36149 ft | 413 kts | 179° |
| 2026-05-07 15:41 | 48.44368 | 18.03025 | 35541 ft | 411 kts | 179° |
| 2026-05-07 15:41 | 48.41531 | 18.03411 | 34934 ft | 409 kts | 179° |
| 2026-05-07 15:41 | 48.38700 | 18.03797 | 34304 ft | 407 kts | 179° |
| 2026-05-07 15:41 | 48.35885 | 18.04180 | 33619 ft | 405 kts | 179° |
| 2026-05-07 15:42 | 48.33093 | 18.04615 | 32925 ft | 404 kts | 175° |
| 2026-05-07 15:42 | 48.30392 | 18.05871 | 32252 ft | 411 kts | 162° |
| 2026-05-07 15:42 | 48.27868 | 18.07940 | 31748 ft | 413 kts | 153° |
| 2026-05-07 15:42 | 48.25626 | 18.10652 | 31245 ft | 419 kts | 141° |
| 2026-05-07 15:43 | 48.23674 | 18.13869 | 30801 ft | 415 kts | 139° |
| 2026-05-07 15:43 | 48.21782 | 18.17083 | 30326 ft | 408 kts | 139° |
| 2026-05-07 15:43 | 48.19909 | 18.20267 | 29836 ft | 406 kts | 139° |
| 2026-05-07 15:43 | 48.18016 | 18.23450 | 29331 ft | 412 kts | 139° |
| 2026-05-07 15:44 | 48.16088 | 18.26661 | 28810 ft | 415 kts | 139° |
| 2026-05-07 15:44 | 48.14174 | 18.29840 | 28324 ft | 408 kts | 139° |
| 2026-05-07 15:44 | 48.12290 | 18.32960 | 27843 ft | 401 kts | 139° |
| 2026-05-07 15:44 | 48.10424 | 18.36040 | 27373 ft | 396 kts | 139° |
| 2026-05-07 15:45 | 48.08585 | 18.39068 | 26896 ft | 391 kts | 139° |
| 2026-05-07 15:45 | 48.06767 | 18.42057 | 26440 ft | 388 kts | 139° |
| 2026-05-07 15:45 | 48.04933 | 18.45059 | 25990 ft | 394 kts | 139° |
| 2026-05-07 15:45 | 48.03090 | 18.48081 | 25505 ft | 391 kts | 138° |
| 2026-05-07 15:46 | 47.99479 | 18.54002 | 24594 ft | 381 kts | 138° |
| 2026-05-07 15:46 | 47.97704 | 18.56905 | 24111 ft | 377 kts | 138° |
| 2026-05-07 15:46 | 47.95948 | 18.59795 | 23684 ft | 375 kts | 137° |
| 2026-05-07 15:47 | 47.94212 | 18.62685 | 23195 ft | 373 kts | 137° |
| 2026-05-07 15:47 | 47.92473 | 18.65586 | 22712 ft | 379 kts | 137° |
| 2026-05-07 15:47 | 47.90708 | 18.68525 | 22231 ft | 379 kts | 137° |
| 2026-05-07 15:47 | 47.88962 | 18.71434 | 21776 ft | 374 kts | 137° |
| 2026-05-07 15:48 | 47.87236 | 18.74306 | 21314 ft | 369 kts | 137° |
| 2026-05-07 15:48 | 47.85536 | 18.77128 | 20869 ft | 364 kts | 137° |
| 2026-05-07 15:48 | 47.83850 | 18.79920 | 20442 ft | 361 kts | 137° |
| 2026-05-07 15:48 | 47.82178 | 18.82683 | 20012 ft | 359 kts | 137° |
| 2026-05-07 15:49 | 47.80505 | 18.85438 | 19582 ft | 359 kts | 137° |
| 2026-05-07 15:49 | 47.78827 | 18.88192 | 19132 ft | 361 kts | 137° |
| 2026-05-07 15:49 | 47.77142 | 18.90957 | 18704 ft | 360 kts | 136° |
| 2026-05-07 15:49 | 47.75474 | 18.93697 | 18265 ft | 355 kts | 136° |
| 2026-05-07 15:50 | 47.73827 | 18.96401 | 17784 ft | 351 kts | 136° |
| 2026-05-07 15:50 | 47.72196 | 18.99074 | 17316 ft | 347 kts | 137° |
| 2026-05-07 15:50 | 47.70583 | 19.01713 | 16894 ft | 344 kts | 136° |
| 2026-05-07 15:50 | 47.68975 | 19.04340 | 16474 ft | 343 kts | 136° |
| 2026-05-07 15:51 | 47.67372 | 19.06955 | 16051 ft | 342 kts | 136° |
| 2026-05-07 15:51 | 47.65769 | 19.09568 | 15636 ft | 343 kts | 136° |
| 2026-05-07 15:51 | 47.64164 | 19.12181 | 15219 ft | 342 kts | 136° |
| 2026-05-07 15:51 | 47.62573 | 19.14774 | 14799 ft | 338 kts | 136° |
| 2026-05-07 15:52 | 47.60999 | 19.17336 | 14391 ft | 334 kts | 136° |
| 2026-05-07 15:52 | 47.59438 | 19.19871 | 13966 ft | 332 kts | 136° |
| 2026-05-07 15:52 | 47.57882 | 19.22396 | 13657 ft | 330 kts | 136° |
| 2026-05-07 15:52 | 47.56332 | 19.24910 | 13270 ft | 332 kts | 136° |
| 2026-05-07 15:53 | 47.54764 | 19.27449 | 12853 ft | 336 kts | 136° |
| 2026-05-07 15:53 | 47.53193 | 19.29991 | 12426 ft | 334 kts | 136° |
| 2026-05-07 15:53 | 47.51636 | 19.32512 | 11992 ft | 330 kts | 136° |
| 2026-05-07 15:53 | 47.50094 | 19.35004 | 11560 ft | 327 kts | 136° |
| 2026-05-07 15:54 | 47.48570 | 19.37464 | 11139 ft | 323 kts | 136° |
| 2026-05-07 15:54 | 47.47058 | 19.39901 | 10733 ft | 320 kts | 136° |
| 2026-05-07 15:54 | 47.45577 | 19.42288 | 10544 ft | 311 kts | 136° |
| 2026-05-07 15:54 | 47.44128 | 19.44620 | 10407 ft | 306 kts | 136° |
| 2026-05-07 15:55 | 47.42722 | 19.46881 | 10280 ft | 298 kts | 136° |
| 2026-05-07 15:55 | 47.41324 | 19.49130 | 10137 ft | 288 kts | 136° |
| 2026-05-07 15:55 | 47.40007 | 19.51244 | 10018 ft | 279 kts | 136° |
| 2026-05-07 15:55 | 47.38684 | 19.53365 | 9732 ft | 277 kts | 136° |
| 2026-05-07 15:56 | 47.37404 | 19.55415 | 9534 ft | 271 kts | 136° |
| 2026-05-07 15:56 | 47.36150 | 19.57424 | 9410 ft | 263 kts | 136° |
| 2026-05-07 15:56 | 47.34905 | 19.59360 | 9161 ft | 259 kts | 139° |
| 2026-05-07 15:56 | 47.33621 | 19.61207 | 8901 ft | 257 kts | 140° |
| 2026-05-07 15:57 | 47.32330 | 19.63005 | 8667 ft | 254 kts | 140° |
| 2026-05-07 15:57 | 47.31048 | 19.64773 | 8428 ft | 251 kts | 140° |
| 2026-05-07 15:57 | 47.29762 | 19.66542 | 8183 ft | 254 kts | 140° |
| 2026-05-07 15:57 | 47.28472 | 19.68327 | 7950 ft | 255 kts | 141° |
| 2026-05-07 15:58 | 47.27176 | 19.70100 | 7730 ft | 252 kts | 141° |
| 2026-05-07 15:58 | 47.25902 | 19.71846 | 7523 ft | 249 kts | 140° |
| 2026-05-07 15:58 | 47.24649 | 19.73593 | 7338 ft | 248 kts | 140° |
| 2026-05-07 15:58 | 47.23389 | 19.75349 | 7168 ft | 251 kts | 141° |
| 2026-05-07 15:59 | 47.22108 | 19.77100 | 7045 ft | 250 kts | 141° |
| 2026-05-07 15:59 | 47.20851 | 19.78802 | 6944 ft | 242 kts | 142° |
| 2026-05-07 15:59 | 47.19380 | 19.79950 | 6684 ft | 242 kts | 175° |
| 2026-05-07 15:59 | 47.17756 | 19.79522 | 6459 ft | 241 kts | 209° |
| 2026-05-07 16:00 | 47.16505 | 19.77903 | 6225 ft | 242 kts | 234° |
| 2026-05-07 16:00 | 47.15870 | 19.75644 | 6066 ft | 238 kts | 259° |
| 2026-05-07 16:00 | 47.15923 | 19.73225 | 6097 ft | 238 kts | 277° |
| 2026-05-07 16:00 | 47.16424 | 19.70906 | 6067 ft | 244 kts | 298° |
| 2026-05-07 16:01 | 47.17536 | 19.68950 | 5837 ft | 254 kts | 309° |
| 2026-05-07 16:01 | 47.18748 | 19.67072 | 5550 ft | 252 kts | 309° |
| 2026-05-07 16:01 | 47.19945 | 19.65200 | 5281 ft | 251 kts | 309° |
| 2026-05-07 16:01 | 47.21129 | 19.63331 | 5023 ft | 249 kts | 309° |
| 2026-05-07 16:02 | 47.22292 | 19.61487 | 4812 ft | 241 kts | 309° |
| 2026-05-07 16:02 | 47.23413 | 19.59705 | 4532 ft | 234 kts | 309° |
| 2026-05-07 16:02 | 47.24506 | 19.57961 | 4284 ft | 228 kts | 309° |
| 2026-05-07 16:02 | 47.25560 | 19.56278 | 4116 ft | 221 kts | 309° |
| 2026-05-07 16:03 | 47.26599 | 19.54616 | 3939 ft | 220 kts | 309° |
| 2026-05-07 16:03 | 47.27632 | 19.52963 | 3805 ft | 219 kts | 309° |
| 2026-05-07 16:03 | 47.28657 | 19.51319 | 3648 ft | 216 kts | 309° |
| 2026-05-07 16:03 | 47.29654 | 19.49723 | 3519 ft | 208 kts | 309° |
| 2026-05-07 16:04 | 47.30624 | 19.48171 | 3346 ft | 202 kts | 309° |
| 2026-05-07 16:04 | 47.31544 | 19.46695 | 3185 ft | 194 kts | 309° |
| 2026-05-07 16:04 | 47.32462 | 19.45220 | 3025 ft | 194 kts | 309° |
| 2026-05-07 16:04 | 47.33368 | 19.43766 | 2816 ft | 191 kts | 310° |
| 2026-05-07 16:05 | 47.34270 | 19.42319 | 2657 ft | 193 kts | 310° |
| 2026-05-07 16:05 | 47.35186 | 19.40845 | 2559 ft | 196 kts | 310° |
| 2026-05-07 16:05 | 47.36140 | 19.39357 | 2279 ft | 196 kts | 311° |
| 2026-05-07 16:05 | 47.37029 | 19.37943 | 2016 ft | 181 kts | 310° |
| 2026-05-07 16:06 | 47.37826 | 19.36653 | 1803 ft | 165 kts | 309° |
| 2026-05-07 16:06 | 47.38566 | 19.35450 | 1578 ft | 153 kts | 309° |
| 2026-05-07 16:06 | 47.39269 | 19.34311 | 1380 ft | 148 kts | 309° |
| 2026-05-07 16:06 | 47.39959 | 19.33191 | 1195 ft | 148 kts | 309° |
| 2026-05-07 16:07 | 47.40656 | 19.32057 | 971 ft | 143 kts | 309° |
| 2026-05-07 16:07 | 47.41306 | 19.30999 | 795 ft | 139 kts | 309° |
| 2026-05-07 16:07 | 47.41957 | 19.29923 | 606 ft | 142 kts | 310° |
| 2026-05-07 16:07 | 47.42625 | 19.28850 | 458 ft | 138 kts | 311° |
| 2026-05-07 16:08 | 47.43201 | 19.27923 | 461 ft | 102 kts | 313° |
| 2026-05-07 16:08 | 47.43581 | 19.27312 | 472 ft | 59 kts | 312° |
| 2026-05-07 16:08 | 47.43727 | 19.26999 | 471 ft | 26 kts | 288° |
| 2026-05-07 16:08 | 47.43762 | 19.26790 | 460 ft | 13 kts | 282° |
| 2026-05-07 16:09 | 47.43783 | 19.26648 | 459 ft | 15 kts | 282° |
| 2026-05-07 16:09 | 47.43798 | 19.26529 | 458 ft | 8 kts | 273° |